Decoded Metar for LFMU (BEZIERS in FRANCE) (IATA:BZR) | Meteo·Mobile Aviation Weather
aviador You're here:

LFMU Decoded Metar

BEZIERS in FRANCE
Report Time2018-10-17 19:00:00
UTC Time2018-10-17 19:22:31
Flight Rules ifr IFR
Wind360° at 03 kt
W.Decomp.*RWY 27: 0.1 kt HW 3.0 kt RCW
Visibility9999 m
Phenomena:Shower Rain
Mist
Clouds:Broken 006 Hf
Expected CloudBase > 800 ft AGL from Temp-Dew spread
Ceiling600 ft
Temp18°C (ISA +3)
Dew Point16°C (88% RH)
QNH1015 hPa
Density Alt597 ft
Elevation56 ft
Report Wrong Elevation
Raw Report
LFMU 171900Z AUTO 36003KT CAVOK 18/16 Q1015 TEMPO VRB15G25KT 1200
SHRA BR BKN006 BKN013TCU=

Extra information for LFMU:More info

Metar Taf Metar & Taf Last 4 Metars F.Rules Stats Wind Profile Meteogram Temp Stats Airport Information Weather charts Add Link Nearby VenuesMetar ALERT Operation Metar Decoded Social comments